Airfield :
LOGIN :

Register | Disclaimer

   EN    FR    IT 

 










Legend :    VFR   Marginal VFR   IFR   Intensive IFR   Very Intensive IFR
Visi :
Ceiling :
>= 8 km
>= 3000ft
5 to 8 km
1000 to 3000 ft
1500m to 5 km
500 to 1000 ft
800 to 1500m
200 to 500 ft
< 800m
< 200 ft
Symbols :   Thunderstorms  Fog  Heavy snow  Heavy precipitations  Wind > 20 kt
SIGMETs :     Misc.  Thunderstorms  Icing  Turbulence  Mountain Waves  Volcanic Ashes







- Airport Elevation : 796 ft
- IATA code : SYT
- Download approach charts


LFLN - Saint-Yan

CURRENT METAR :
  • 201700Z AUTO 35002KT 6000 FEW049 OVC056 04/02 Q1003 NOSIG

EXPIRED METARs :
  • 201630Z AUTO 02003KT 6000 NSC 04/02 Q1002 NOSIG
  • 201600Z AUTO 03003KT 6000 FEW048 OVC060 04/02 Q1002 NOSIG
  • 201530Z AUTO 03004KT 7000 FEW009 SCT054 OVC078 04/02 Q1001 NOSIG
  • 201500Z AUTO 05003KT 010V070 8000 NSC 04/02 Q1001 NOSIG
  • 201430Z AUTO 02003KT 8000 FEW047 SCT060 OVC080 04/02 Q1001 NOSIG

TAF TAF LFLN
Valid from the 20 at 15:00 until the 21 at 00:00 UTC


201400Z 2015/2024 VRB03KT 7000 BKN045
BECMG 2015/2018 SCT008 OVC028
TEMPO 2019/2024 2500 -RA BR BKN006 OVC015
No reported NOTAMs for that airfield.
2 SIGMETs reported for the Marseille FIR (LFMM) :
 
Embedded thunderstorms
LFMM SIGMET 2 VALID 201700/201900 LFPW
LFMM MARSEILLE FIR/UIR EMBD TS OBS AT 1700Z WI N4100 E00430 - N4130 E00430 - N4200 E00530 - N4115 E00545 - N4100 E00430 TOP FL320 MOV NE 30KT NC=
Embedded thunderstorms
LFMM SIGMET 1 VALID 201545/201700 LFPW
LFMM MARSEILLE FIR/UIR EMBD TS OBS AT 1545Z WI N4100 E00430 - N4145 E00430 - N4200 E00515 - N4045 E00600 - N4045 E00515 - N4100 E00430 TOP FL320 MOV E 30KT INTSF=



MET'MAP, your aeronautical weather chart ! - Copyright ORBIFLY December 2007 - Disclaimer

ORBIFLY MET'MAP TEAM :

Programming & Development : Alexandra Zaïnal
Concept & Development : Baudouin d'Aumeries
Co-Development & Prog : Marc-Olivier Méhu
Technical & hardware support : Manuel Goepfert

Contact : metmap@orbifly.com




SOURCES & CREDITS :

   NOAA